sensor_id;sensor_type;location;lat;lon;timestamp;P1;durP1;ratioP1;P2;durP2;ratioP2
4186;SDS011;2107;52.306;10.484;2024-03-08T00:01:48;1.50;;;1.50;;
4186;SDS011;2107;52.306;10.484;2024-03-08T00:04:15;1.40;;;1.40;;
4186;SDS011;2107;52.306;10.484;2024-03-08T00:06:43;1.40;;;1.40;;
4186;SDS011;2107;52.306;10.484;2024-03-08T00:09:11;1.23;;;1.23;;
4186;SDS011;2107;52.306;10.484;2024-03-08T00:11:38;1.00;;;1.00;;
4186;SDS011;2107;52.306;10.484;2024-03-08T00:14:05;0.90;;;0.90;;
4186;SDS011;2107;52.306;10.484;2024-03-08T00:16:32;0.60;;;0.60;;
4186;SDS011;2107;52.306;10.484;2024-03-08T00:19:00;0.70;;;0.70;;
4186;SDS011;2107;52.306;10.484;2024-03-08T00:21:27;0.73;;;0.73;;
4186;SDS011;2107;52.306;10.484;2024-03-08T00:23:55;1.10;;;1.10;;
4186;SDS011;2107;52.306;10.484;2024-03-08T00:26:22;1.10;;;1.10;;
4186;SDS011;2107;52.306;10.484;2024-03-08T00:28:49;1.40;;;1.40;;
4186;SDS011;2107;52.306;10.484;2024-03-08T00:31:16;1.50;;;1.50;;
4186;SDS011;2107;52.306;10.484;2024-03-08T00:33:43;1.50;;;1.50;;
4186;SDS011;2107;52.306;10.484;2024-03-08T00:36:09;1.60;;;1.60;;
4186;SDS011;2107;52.306;10.484;2024-03-08T00:38:36;1.20;;;1.20;;
4186;SDS011;2107;52.306;10.484;2024-03-08T00:41:05;1.30;;;1.30;;
4186;SDS011;2107;52.306;10.484;2024-03-08T00:43:32;1.10;;;1.10;;
4186;SDS011;2107;52.306;10.484;2024-03-08T00:45:59;1.10;;;1.10;;
4186;SDS011;2107;52.306;10.484;2024-03-08T00:48:26;1.40;;;1.40;;
4186;SDS011;2107;52.306;10.484;2024-03-08T00:50:53;1.30;;;1.30;;
4186;SDS011;2107;52.306;10.484;2024-03-08T00:53:20;1.20;;;1.20;;
4186;SDS011;2107;52.306;10.484;2024-03-08T00:55:47;1.30;;;1.30;;
4186;SDS011;2107;52.306;10.484;2024-03-08T00:58:15;1.37;;;1.37;;
4186;SDS011;2107;52.306;10.484;2024-03-08T01:00:42;1.70;;;1.70;;
4186;SDS011;2107;52.306;10.484;2024-03-08T01:03:09;1.30;;;1.30;;
4186;SDS011;2107;52.306;10.484;2024-03-08T01:05:36;1.60;;;1.60;;
4186;SDS011;2107;52.306;10.484;2024-03-08T01:08:03;1.30;;;1.30;;
4186;SDS011;2107;52.306;10.484;2024-03-08T01:10:31;1.30;;;1.30;;
4186;SDS011;2107;52.306;10.484;2024-03-08T01:12:57;1.30;;;1.30;;
4186;SDS011;2107;52.306;10.484;2024-03-08T01:15:26;1.20;;;1.20;;
4186;SDS011;2107;52.306;10.484;2024-03-08T01:17:53;1.00;;;1.00;;
4186;SDS011;2107;52.306;10.484;2024-03-08T01:20:20;0.90;;;0.90;;
4186;SDS011;2107;52.306;10.484;2024-03-08T01:22:46;0.40;;;0.40;;
4186;SDS011;2107;52.306;10.484;2024-03-08T01:25:13;0.30;;;0.30;;
4186;SDS011;2107;52.306;10.484;2024-03-08T01:27:40;0.40;;;0.40;;
4186;SDS011;2107;52.306;10.484;2024-03-08T01:30:07;0.90;;;0.90;;
4186;SDS011;2107;52.306;10.484;2024-03-08T01:32:37;0.70;;;0.70;;
4186;SDS011;2107;52.306;10.484;2024-03-08T01:35:04;0.60;;;0.60;;
4186;SDS011;2107;52.306;10.484;2024-03-08T01:37:34;0.70;;;0.70;;
4186;SDS011;2107;52.306;10.484;2024-03-08T01:40:01;0.60;;;0.60;;
4186;SDS011;2107;52.306;10.484;2024-03-08T01:42:28;0.60;;;0.60;;
4186;SDS011;2107;52.306;10.484;2024-03-08T01:44:55;0.60;;;0.60;;
4186;SDS011;2107;52.306;10.484;2024-03-08T01:47:22;0.90;;;0.90;;
4186;SDS011;2107;52.306;10.484;2024-03-08T01:49:51;0.50;;;0.50;;
4186;SDS011;2107;52.306;10.484;2024-03-08T01:52:19;0.80;;;0.80;;
4186;SDS011;2107;52.306;10.484;2024-03-08T01:54:48;0.70;;;0.70;;
4186;SDS011;2107;52.306;10.484;2024-03-08T01:57:16;0.40;;;0.40;;
4186;SDS011;2107;52.306;10.484;2024-03-08T01:59:43;0.40;;;0.40;;
4186;SDS011;2107;52.306;10.484;2024-03-08T02:02:10;0.30;;;0.30;;
4186;SDS011;2107;52.306;10.484;2024-03-08T02:04:40;0.30;;;0.30;;
4186;SDS011;2107;52.306;10.484;2024-03-08T02:07:09;0.30;;;0.30;;
4186;SDS011;2107;52.306;10.484;2024-03-08T02:09:36;0.30;;;0.30;;
4186;SDS011;2107;52.306;10.484;2024-03-08T02:12:04;0.30;;;0.30;;
4186;SDS011;2107;52.306;10.484;2024-03-08T02:14:31;0.30;;;0.30;;
4186;SDS011;2107;52.306;10.484;2024-03-08T02:17:00;0.30;;;0.30;;
4186;SDS011;2107;52.306;10.484;2024-03-08T02:19:27;0.40;;;0.40;;
4186;SDS011;2107;52.306;10.484;2024-03-08T02:21:55;0.47;;;0.47;;
4186;SDS011;2107;52.306;10.484;2024-03-08T02:24:22;0.50;;;0.50;;
4186;SDS011;2107;52.306;10.484;2024-03-08T02:26:50;0.40;;;0.40;;
4186;SDS011;2107;52.306;10.484;2024-03-08T02:29:18;0.40;;;0.40;;
4186;SDS011;2107;52.306;10.484;2024-03-08T02:31:46;0.40;;;0.40;;
4186;SDS011;2107;52.306;10.484;2024-03-08T02:34:13;0.40;;;0.40;;
4186;SDS011;2107;52.306;10.484;2024-03-08T02:36:40;0.30;;;0.30;;
4186;SDS011;2107;52.306;10.484;2024-03-08T02:39:08;0.40;;;0.40;;
4186;SDS011;2107;52.306;10.484;2024-03-08T02:41:36;0.43;;;0.43;;
4186;SDS011;2107;52.306;10.484;2024-03-08T02:44:03;0.40;;;0.40;;
4186;SDS011;2107;52.306;10.484;2024-03-08T02:46:31;0.30;;;0.30;;
4186;SDS011;2107;52.306;10.484;2024-03-08T02:48:58;0.40;;;0.40;;
4186;SDS011;2107;52.306;10.484;2024-03-08T02:51:25;0.40;;;0.40;;
4186;SDS011;2107;52.306;10.484;2024-03-08T02:53:52;0.30;;;0.30;;
4186;SDS011;2107;52.306;10.484;2024-03-08T02:56:20;0.30;;;0.30;;
4186;SDS011;2107;52.306;10.484;2024-03-08T02:58:47;0.30;;;0.30;;
4186;SDS011;2107;52.306;10.484;2024-03-08T03:01:14;0.40;;;0.40;;
4186;SDS011;2107;52.306;10.484;2024-03-08T03:03:41;0.40;;;0.40;;
4186;SDS011;2107;52.306;10.484;2024-03-08T03:06:08;0.50;;;0.50;;
4186;SDS011;2107;52.306;10.484;2024-03-08T03:08:35;0.50;;;0.50;;
4186;SDS011;2107;52.306;10.484;2024-03-08T03:11:02;0.50;;;0.50;;
4186;SDS011;2107;52.306;10.484;2024-03-08T03:13:30;0.50;;;0.50;;
4186;SDS011;2107;52.306;10.484;2024-03-08T03:15:58;0.50;;;0.50;;
4186;SDS011;2107;52.306;10.484;2024-03-08T03:18:25;0.50;;;0.50;;
4186;SDS011;2107;52.306;10.484;2024-03-08T03:20:52;0.40;;;0.40;;
4186;SDS011;2107;52.306;10.484;2024-03-08T03:23:19;0.30;;;0.30;;
4186;SDS011;2107;52.306;10.484;2024-03-08T03:25:46;0.40;;;0.40;;
4186;SDS011;2107;52.306;10.484;2024-03-08T03:28:13;0.30;;;0.30;;
4186;SDS011;2107;52.306;10.484;2024-03-08T03:30:44;0.40;;;0.40;;
4186;SDS011;2107;52.306;10.484;2024-03-08T03:33:11;0.30;;;0.30;;
4186;SDS011;2107;52.306;10.484;2024-03-08T03:35:40;0.40;;;0.40;;
4186;SDS011;2107;52.306;10.484;2024-03-08T03:38:08;0.30;;;0.30;;
4186;SDS011;2107;52.306;10.484;2024-03-08T03:40:35;0.40;;;0.40;;
4186;SDS011;2107;52.306;10.484;2024-03-08T03:43:02;0.30;;;0.30;;
4186;SDS011;2107;52.306;10.484;2024-03-08T03:45:30;0.30;;;0.30;;
4186;SDS011;2107;52.306;10.484;2024-03-08T03:48:01;0.30;;;0.30;;
4186;SDS011;2107;52.306;10.484;2024-03-08T03:50:28;0.30;;;0.30;;
4186;SDS011;2107;52.306;10.484;2024-03-08T03:52:56;0.30;;;0.30;;
4186;SDS011;2107;52.306;10.484;2024-03-08T03:55:23;0.40;;;0.40;;
4186;SDS011;2107;52.306;10.484;2024-03-08T03:57:50;0.30;;;0.30;;
4186;SDS011;2107;52.306;10.484;2024-03-08T04:00:17;0.30;;;0.30;;
4186;SDS011;2107;52.306;10.484;2024-03-08T04:02:44;0.30;;;0.30;;
4186;SDS011;2107;52.306;10.484;2024-03-08T04:05:13;0.40;;;0.40;;
4186;SDS011;2107;52.306;10.484;2024-03-08T04:07:40;0.30;;;0.30;;
4186;SDS011;2107;52.306;10.484;2024-03-08T04:10:08;0.30;;;0.30;;
4186;SDS011;2107;52.306;10.484;2024-03-08T04:12:37;0.30;;;0.30;;
4186;SDS011;2107;52.306;10.484;2024-03-08T04:15:04;0.30;;;0.30;;
4186;SDS011;2107;52.306;10.484;2024-03-08T04:17:32;0.30;;;0.30;;
4186;SDS011;2107;52.306;10.484;2024-03-08T04:20:00;0.23;;;0.23;;
4186;SDS011;2107;52.306;10.484;2024-03-08T04:22:34;0.30;;;0.30;;
4186;SDS011;2107;52.306;10.484;2024-03-08T04:25:01;0.20;;;0.20;;
4186;SDS011;2107;52.306;10.484;2024-03-08T04:27:28;0.40;;;0.40;;
4186;SDS011;2107;52.306;10.484;2024-03-08T04:29:55;0.20;;;0.20;;
4186;SDS011;2107;52.306;10.484;2024-03-08T04:32:22;0.30;;;0.30;;
4186;SDS011;2107;52.306;10.484;2024-03-08T04:34:49;0.20;;;0.20;;
4186;SDS011;2107;52.306;10.484;2024-03-08T04:37:16;0.40;;;0.40;;
4186;SDS011;2107;52.306;10.484;2024-03-08T04:39:48;0.20;;;0.20;;
4186;SDS011;2107;52.306;10.484;2024-03-08T04:42:15;0.30;;;0.30;;
4186;SDS011;2107;52.306;10.484;2024-03-08T04:44:43;0.20;;;0.20;;
4186;SDS011;2107;52.306;10.484;2024-03-08T04:47:10;0.30;;;0.30;;
4186;SDS011;2107;52.306;10.484;2024-03-08T04:49:37;0.30;;;0.30;;
4186;SDS011;2107;52.306;10.484;2024-03-08T04:52:04;0.30;;;0.30;;
4186;SDS011;2107;52.306;10.484;2024-03-08T04:54:32;0.20;;;0.20;;
4186;SDS011;2107;52.306;10.484;2024-03-08T04:57:00;0.20;;;0.20;;
4186;SDS011;2107;52.306;10.484;2024-03-08T04:59:29;0.20;;;0.20;;
4186;SDS011;2107;52.306;10.484;2024-03-08T05:01:56;0.20;;;0.20;;
4186;SDS011;2107;52.306;10.484;2024-03-08T05:04:23;0.20;;;0.20;;
4186;SDS011;2107;52.306;10.484;2024-03-08T05:06:50;0.20;;;0.20;;
4186;SDS011;2107;52.306;10.484;2024-03-08T05:09:17;0.27;;;0.27;;
4186;SDS011;2107;52.306;10.484;2024-03-08T05:11:44;0.20;;;0.20;;
4186;SDS011;2107;52.306;10.484;2024-03-08T05:14:13;0.20;;;0.20;;
4186;SDS011;2107;52.306;10.484;2024-03-08T05:16:42;0.30;;;0.30;;
4186;SDS011;2107;52.306;10.484;2024-03-08T05:19:13;0.20;;;0.20;;
4186;SDS011;2107;52.306;10.484;2024-03-08T05:21:41;0.20;;;0.20;;
4186;SDS011;2107;52.306;10.484;2024-03-08T05:24:08;0.20;;;0.20;;
4186;SDS011;2107;52.306;10.484;2024-03-08T05:26:36;0.20;;;0.20;;
4186;SDS011;2107;52.306;10.484;2024-03-08T05:29:03;0.20;;;0.20;;
4186;SDS011;2107;52.306;10.484;2024-03-08T05:31:32;0.30;;;0.30;;
4186;SDS011;2107;52.306;10.484;2024-03-08T05:34:08;0.20;;;0.20;;
4186;SDS011;2107;52.306;10.484;2024-03-08T05:36:35;0.20;;;0.20;;
4186;SDS011;2107;52.306;10.484;2024-03-08T05:39:02;0.20;;;0.20;;
4186;SDS011;2107;52.306;10.484;2024-03-08T05:41:31;0.30;;;0.30;;
4186;SDS011;2107;52.306;10.484;2024-03-08T05:43:58;0.40;;;0.40;;
4186;SDS011;2107;52.306;10.484;2024-03-08T05:46:25;0.30;;;0.30;;
4186;SDS011;2107;52.306;10.484;2024-03-08T05:48:54;0.30;;;0.30;;
4186;SDS011;2107;52.306;10.484;2024-03-08T05:51:23;0.30;;;0.30;;
4186;SDS011;2107;52.306;10.484;2024-03-08T05:53:51;0.30;;;0.30;;
4186;SDS011;2107;52.306;10.484;2024-03-08T05:56:18;0.40;;;0.40;;
4186;SDS011;2107;52.306;10.484;2024-03-08T05:58:45;0.30;;;0.30;;
4186;SDS011;2107;52.306;10.484;2024-03-08T06:01:13;0.30;;;0.30;;
4186;SDS011;2107;52.306;10.484;2024-03-08T06:03:41;0.30;;;0.30;;
4186;SDS011;2107;52.306;10.484;2024-03-08T06:06:11;0.30;;;0.30;;
4186;SDS011;2107;52.306;10.484;2024-03-08T06:08:38;0.30;;;0.30;;
4186;SDS011;2107;52.306;10.484;2024-03-08T06:11:08;0.30;;;0.30;;
4186;SDS011;2107;52.306;10.484;2024-03-08T06:13:34;0.40;;;0.40;;
4186;SDS011;2107;52.306;10.484;2024-03-08T06:16:02;0.30;;;0.30;;
4186;SDS011;2107;52.306;10.484;2024-03-08T06:18:29;0.30;;;0.30;;
4186;SDS011;2107;52.306;10.484;2024-03-08T06:20:57;0.40;;;0.40;;
4186;SDS011;2107;52.306;10.484;2024-03-08T06:23:25;0.30;;;0.30;;
4186;SDS011;2107;52.306;10.484;2024-03-08T06:25:52;0.40;;;0.40;;
4186;SDS011;2107;52.306;10.484;2024-03-08T06:28:19;0.30;;;0.30;;
4186;SDS011;2107;52.306;10.484;2024-03-08T06:30:46;0.50;;;0.50;;
4186;SDS011;2107;52.306;10.484;2024-03-08T06:33:13;0.50;;;0.50;;
4186;SDS011;2107;52.306;10.484;2024-03-08T06:35:41;0.40;;;0.40;;
4186;SDS011;2107;52.306;10.484;2024-03-08T06:38:08;0.60;;;0.60;;
4186;SDS011;2107;52.306;10.484;2024-03-08T06:40:38;0.60;;;0.60;;
4186;SDS011;2107;52.306;10.484;2024-03-08T06:43:05;0.60;;;0.60;;
4186;SDS011;2107;52.306;10.484;2024-03-08T06:45:32;0.70;;;0.70;;
4186;SDS011;2107;52.306;10.484;2024-03-08T06:48:02;0.70;;;0.70;;
4186;SDS011;2107;52.306;10.484;2024-03-08T06:50:34;0.70;;;0.70;;
4186;SDS011;2107;52.306;10.484;2024-03-08T06:53:02;0.70;;;0.70;;
4186;SDS011;2107;52.306;10.484;2024-03-08T06:55:29;0.70;;;0.70;;
4186;SDS011;2107;52.306;10.484;2024-03-08T06:57:57;0.70;;;0.70;;
4186;SDS011;2107;52.306;10.484;2024-03-08T07:00:24;0.80;;;0.80;;
4186;SDS011;2107;52.306;10.484;2024-03-08T07:02:53;0.80;;;0.80;;
4186;SDS011;2107;52.306;10.484;2024-03-08T07:05:20;0.60;;;0.60;;
4186;SDS011;2107;52.306;10.484;2024-03-08T07:07:48;0.80;;;0.80;;
4186;SDS011;2107;52.306;10.484;2024-03-08T07:10:16;0.90;;;0.90;;
4186;SDS011;2107;52.306;10.484;2024-03-08T07:12:44;1.00;;;1.00;;
4186;SDS011;2107;52.306;10.484;2024-03-08T07:15:13;0.90;;;0.90;;
4186;SDS011;2107;52.306;10.484;2024-03-08T07:17:40;0.90;;;0.90;;
4186;SDS011;2107;52.306;10.484;2024-03-08T07:20:09;0.70;;;0.70;;
4186;SDS011;2107;52.306;10.484;2024-03-08T07:22:38;0.70;;;0.70;;
4186;SDS011;2107;52.306;10.484;2024-03-08T07:25:05;0.80;;;0.80;;
4186;SDS011;2107;52.306;10.484;2024-03-08T07:27:45;0.80;;;0.80;;
4186;SDS011;2107;52.306;10.484;2024-03-08T07:30:14;0.80;;;0.80;;
4186;SDS011;2107;52.306;10.484;2024-03-08T07:33:03;0.83;;;0.83;;
4186;SDS011;2107;52.306;10.484;2024-03-08T07:35:32;0.70;;;0.70;;
4186;SDS011;2107;52.306;10.484;2024-03-08T07:38:01;0.50;;;0.50;;
4186;SDS011;2107;52.306;10.484;2024-03-08T07:40:29;0.70;;;0.70;;
4186;SDS011;2107;52.306;10.484;2024-03-08T07:42:56;0.50;;;0.50;;
4186;SDS011;2107;52.306;10.484;2024-03-08T07:45:25;0.70;;;0.70;;
4186;SDS011;2107;52.306;10.484;2024-03-08T07:47:51;0.60;;;0.60;;
4186;SDS011;2107;52.306;10.484;2024-03-08T07:50:18;0.70;;;0.70;;
4186;SDS011;2107;52.306;10.484;2024-03-08T07:52:47;0.70;;;0.70;;
4186;SDS011;2107;52.306;10.484;2024-03-08T07:55:14;0.70;;;0.70;;
4186;SDS011;2107;52.306;10.484;2024-03-08T07:57:41;0.60;;;0.60;;
4186;SDS011;2107;52.306;10.484;2024-03-08T08:00:09;0.60;;;0.60;;
4186;SDS011;2107;52.306;10.484;2024-03-08T08:02:39;0.70;;;0.70;;
4186;SDS011;2107;52.306;10.484;2024-03-08T08:05:06;0.80;;;0.80;;
4186;SDS011;2107;52.306;10.484;2024-03-08T08:07:35;1.00;;;1.00;;
4186;SDS011;2107;52.306;10.484;2024-03-08T08:10:02;0.90;;;0.90;;
4186;SDS011;2107;52.306;10.484;2024-03-08T08:12:30;1.00;;;1.00;;
4186;SDS011;2107;52.306;10.484;2024-03-08T08:14:59;1.10;;;1.10;;
4186;SDS011;2107;52.306;10.484;2024-03-08T08:17:26;1.20;;;1.20;;
4186;SDS011;2107;52.306;10.484;2024-03-08T08:19:55;0.80;;;0.80;;
4186;SDS011;2107;52.306;10.484;2024-03-08T08:22:22;0.90;;;0.90;;
4186;SDS011;2107;52.306;10.484;2024-03-08T08:24:48;0.80;;;0.80;;
4186;SDS011;2107;52.306;10.484;2024-03-08T08:27:16;0.90;;;0.90;;
4186;SDS011;2107;52.306;10.484;2024-03-08T08:29:43;1.00;;;1.00;;
4186;SDS011;2107;52.306;10.484;2024-03-08T08:32:11;0.93;;;0.93;;
4186;SDS011;2107;52.306;10.484;2024-03-08T08:34:38;1.00;;;1.00;;
4186;SDS011;2107;52.306;10.484;2024-03-08T08:37:06;1.13;;;1.13;;
4186;SDS011;2107;52.306;10.484;2024-03-08T08:39:34;0.87;;;0.87;;
4186;SDS011;2107;52.306;10.484;2024-03-08T08:42:03;0.90;;;0.90;;
4186;SDS011;2107;52.306;10.484;2024-03-08T08:44:30;0.70;;;0.70;;
4186;SDS011;2107;52.306;10.484;2024-03-08T08:46:57;1.00;;;1.00;;
4186;SDS011;2107;52.306;10.484;2024-03-08T08:49:24;0.90;;;0.90;;
4186;SDS011;2107;52.306;10.484;2024-03-08T08:51:51;0.90;;;0.90;;
4186;SDS011;2107;52.306;10.484;2024-03-08T08:54:19;0.80;;;0.80;;
4186;SDS011;2107;52.306;10.484;2024-03-08T08:56:47;0.80;;;0.80;;
4186;SDS011;2107;52.306;10.484;2024-03-08T08:59:13;0.87;;;0.87;;
4186;SDS011;2107;52.306;10.484;2024-03-08T09:01:44;0.80;;;0.80;;
4186;SDS011;2107;52.306;10.484;2024-03-08T09:04:12;0.70;;;0.70;;
4186;SDS011;2107;52.306;10.484;2024-03-08T09:06:39;0.77;;;0.77;;
4186;SDS011;2107;52.306;10.484;2024-03-08T09:09:07;0.80;;;0.80;;
4186;SDS011;2107;52.306;10.484;2024-03-08T09:11:37;0.70;;;0.70;;
4186;SDS011;2107;52.306;10.484;2024-03-08T09:14:06;0.80;;;0.80;;
4186;SDS011;2107;52.306;10.484;2024-03-08T09:16:33;0.80;;;0.80;;
4186;SDS011;2107;52.306;10.484;2024-03-08T09:19:02;0.90;;;0.90;;
4186;SDS011;2107;52.306;10.484;2024-03-08T09:21:28;0.90;;;0.90;;
4186;SDS011;2107;52.306;10.484;2024-03-08T09:23:56;1.00;;;1.00;;
4186;SDS011;2107;52.306;10.484;2024-03-08T09:26:24;0.90;;;0.90;;
4186;SDS011;2107;52.306;10.484;2024-03-08T09:28:53;1.10;;;1.10;;
4186;SDS011;2107;52.306;10.484;2024-03-08T09:31:21;1.00;;;1.00;;
4186;SDS011;2107;52.306;10.484;2024-03-08T09:33:48;1.00;;;1.00;;
4186;SDS011;2107;52.306;10.484;2024-03-08T09:36:15;1.20;;;1.20;;
4186;SDS011;2107;52.306;10.484;2024-03-08T09:38:42;1.10;;;1.10;;
4186;SDS011;2107;52.306;10.484;2024-03-08T09:41:09;1.50;;;1.50;;
4186;SDS011;2107;52.306;10.484;2024-03-08T09:43:37;1.40;;;1.40;;
4186;SDS011;2107;52.306;10.484;2024-03-08T09:46:06;1.30;;;1.30;;
4186;SDS011;2107;52.306;10.484;2024-03-08T09:48:35;1.20;;;1.20;;
4186;SDS011;2107;52.306;10.484;2024-03-08T09:51:03;1.10;;;1.10;;
4186;SDS011;2107;52.306;10.484;2024-03-08T09:53:32;1.10;;;1.10;;
4186;SDS011;2107;52.306;10.484;2024-03-08T09:55:59;1.13;;;1.13;;
4186;SDS011;2107;52.306;10.484;2024-03-08T09:58:28;1.40;;;1.40;;
4186;SDS011;2107;52.306;10.484;2024-03-08T10:01:20;1.30;;;1.30;;
4186;SDS011;2107;52.306;10.484;2024-03-08T10:03:47;1.40;;;1.40;;
4186;SDS011;2107;52.306;10.484;2024-03-08T10:06:15;1.20;;;1.20;;
4186;SDS011;2107;52.306;10.484;2024-03-08T10:08:42;1.10;;;1.10;;
4186;SDS011;2107;52.306;10.484;2024-03-08T10:11:10;1.17;;;1.17;;
4186;SDS011;2107;52.306;10.484;2024-03-08T10:13:37;1.07;;;1.07;;
4186;SDS011;2107;52.306;10.484;2024-03-08T10:16:06;1.00;;;1.00;;
4186;SDS011;2107;52.306;10.484;2024-03-08T10:18:35;1.10;;;1.10;;
4186;SDS011;2107;52.306;10.484;2024-03-08T10:21:02;1.20;;;1.20;;
4186;SDS011;2107;52.306;10.484;2024-03-08T10:23:30;1.13;;;1.13;;
4186;SDS011;2107;52.306;10.484;2024-03-08T10:26:00;0.83;;;0.83;;
4186;SDS011;2107;52.306;10.484;2024-03-08T10:28:36;0.80;;;0.80;;
4186;SDS011;2107;52.306;10.484;2024-03-08T10:31:03;0.90;;;0.90;;
4186;SDS011;2107;52.306;10.484;2024-03-08T10:33:30;0.80;;;0.80;;
4186;SDS011;2107;52.306;10.484;2024-03-08T10:35:59;0.90;;;0.90;;
4186;SDS011;2107;52.306;10.484;2024-03-08T10:38:28;0.80;;;0.80;;
4186;SDS011;2107;52.306;10.484;2024-03-08T10:40:58;0.80;;;0.80;;
4186;SDS011;2107;52.306;10.484;2024-03-08T10:43:26;0.90;;;0.90;;
4186;SDS011;2107;52.306;10.484;2024-03-08T10:46:04;0.90;;;0.90;;
4186;SDS011;2107;52.306;10.484;2024-03-08T10:48:40;0.80;;;0.80;;
4186;SDS011;2107;52.306;10.484;2024-03-08T10:51:12;0.90;;;0.90;;
4186;SDS011;2107;52.306;10.484;2024-03-08T10:53:41;1.00;;;1.00;;
4186;SDS011;2107;52.306;10.484;2024-03-08T10:56:10;0.90;;;0.90;;
4186;SDS011;2107;52.306;10.484;2024-03-08T10:58:39;1.10;;;1.10;;
4186;SDS011;2107;52.306;10.484;2024-03-08T11:01:09;1.00;;;1.00;;
4186;SDS011;2107;52.306;10.484;2024-03-08T11:03:46;1.10;;;1.10;;
4186;SDS011;2107;52.306;10.484;2024-03-08T11:06:22;0.70;;;0.70;;
4186;SDS011;2107;52.306;10.484;2024-03-08T11:08:55;0.70;;;0.70;;
4186;SDS011;2107;52.306;10.484;2024-03-08T11:11:24;1.00;;;1.00;;
4186;SDS011;2107;52.306;10.484;2024-03-08T11:13:55;0.80;;;0.80;;
4186;SDS011;2107;52.306;10.484;2024-03-08T11:16:38;1.00;;;1.00;;
4186;SDS011;2107;52.306;10.484;2024-03-08T11:19:24;1.10;;;1.10;;
4186;SDS011;2107;52.306;10.484;2024-03-08T11:22:01;1.00;;;1.00;;
4186;SDS011;2107;52.306;10.484;2024-03-08T11:24:38;1.00;;;1.00;;
4186;SDS011;2107;52.306;10.484;2024-03-08T11:27:06;1.10;;;1.10;;
4186;SDS011;2107;52.306;10.484;2024-03-08T11:29:37;1.10;;;1.10;;
4186;SDS011;2107;52.306;10.484;2024-03-08T11:32:09;0.90;;;0.90;;
4186;SDS011;2107;52.306;10.484;2024-03-08T11:34:37;1.00;;;1.00;;
4186;SDS011;2107;52.306;10.484;2024-03-08T11:37:12;1.10;;;1.10;;
4186;SDS011;2107;52.306;10.484;2024-03-08T11:39:40;1.00;;;1.00;;
4186;SDS011;2107;52.306;10.484;2024-03-08T11:42:12;1.10;;;1.10;;
4186;SDS011;2107;52.306;10.484;2024-03-08T11:44:40;1.00;;;1.00;;
4186;SDS011;2107;52.306;10.484;2024-03-08T11:47:09;1.10;;;1.10;;
4186;SDS011;2107;52.306;10.484;2024-03-08T11:49:36;1.00;;;1.00;;
4186;SDS011;2107;52.306;10.484;2024-03-08T11:52:03;1.10;;;1.10;;
4186;SDS011;2107;52.306;10.484;2024-03-08T11:54:32;1.00;;;1.00;;
4186;SDS011;2107;52.306;10.484;2024-03-08T11:56:59;1.20;;;1.20;;
4186;SDS011;2107;52.306;10.484;2024-03-08T11:59:27;1.20;;;1.20;;
4186;SDS011;2107;52.306;10.484;2024-03-08T12:01:59;1.20;;;1.20;;
4186;SDS011;2107;52.306;10.484;2024-03-08T12:04:27;1.30;;;1.30;;
4186;SDS011;2107;52.306;10.484;2024-03-08T12:06:54;1.40;;;1.40;;
4186;SDS011;2107;52.306;10.484;2024-03-08T12:09:21;1.40;;;1.40;;
4186;SDS011;2107;52.306;10.484;2024-03-08T12:11:49;1.50;;;1.50;;
4186;SDS011;2107;52.306;10.484;2024-03-08T12:14:16;1.40;;;1.40;;
4186;SDS011;2107;52.306;10.484;2024-03-08T12:16:43;1.80;;;1.80;;
4186;SDS011;2107;52.306;10.484;2024-03-08T12:19:10;1.60;;;1.60;;
4186;SDS011;2107;52.306;10.484;2024-03-08T12:21:37;1.10;;;1.10;;
4186;SDS011;2107;52.306;10.484;2024-03-08T12:24:13;1.40;;;1.40;;
4186;SDS011;2107;52.306;10.484;2024-03-08T12:26:41;1.30;;;1.30;;
4186;SDS011;2107;52.306;10.484;2024-03-08T12:29:17;1.40;;;1.40;;
4186;SDS011;2107;52.306;10.484;2024-03-08T12:31:45;1.30;;;1.30;;
4186;SDS011;2107;52.306;10.484;2024-03-08T12:34:13;1.30;;;1.30;;
4186;SDS011;2107;52.306;10.484;2024-03-08T12:36:44;1.40;;;1.40;;
4186;SDS011;2107;52.306;10.484;2024-03-08T12:39:13;1.40;;;1.40;;
4186;SDS011;2107;52.306;10.484;2024-03-08T12:41:43;1.40;;;1.40;;
4186;SDS011;2107;52.306;10.484;2024-03-08T12:44:11;1.40;;;1.40;;
4186;SDS011;2107;52.306;10.484;2024-03-08T12:46:40;1.40;;;1.40;;
4186;SDS011;2107;52.306;10.484;2024-03-08T12:49:10;1.40;;;1.40;;
4186;SDS011;2107;52.306;10.484;2024-03-08T12:51:37;1.30;;;1.30;;
4186;SDS011;2107;52.306;10.484;2024-03-08T12:54:06;1.40;;;1.40;;
4186;SDS011;2107;52.306;10.484;2024-03-08T12:56:34;1.30;;;1.30;;
4186;SDS011;2107;52.306;10.484;2024-03-08T12:59:02;1.50;;;1.50;;
4186;SDS011;2107;52.306;10.484;2024-03-08T13:01:31;1.30;;;1.30;;
4186;SDS011;2107;52.306;10.484;2024-03-08T13:03:59;1.40;;;1.40;;
4186;SDS011;2107;52.306;10.484;2024-03-08T13:06:27;1.40;;;1.40;;
4186;SDS011;2107;52.306;10.484;2024-03-08T13:08:56;1.40;;;1.40;;
4186;SDS011;2107;52.306;10.484;2024-03-08T13:11:24;1.60;;;1.60;;
4186;SDS011;2107;52.306;10.484;2024-03-08T13:13:52;1.63;;;1.63;;
4186;SDS011;2107;52.306;10.484;2024-03-08T13:16:19;1.70;;;1.70;;
4186;SDS011;2107;52.306;10.484;2024-03-08T13:18:46;1.60;;;1.60;;
4186;SDS011;2107;52.306;10.484;2024-03-08T13:21:15;1.57;;;1.57;;
4186;SDS011;2107;52.306;10.484;2024-03-08T13:23:44;1.50;;;1.50;;
4186;SDS011;2107;52.306;10.484;2024-03-08T13:26:14;1.70;;;1.70;;
4186;SDS011;2107;52.306;10.484;2024-03-08T13:28:42;1.70;;;1.70;;
4186;SDS011;2107;52.306;10.484;2024-03-08T13:31:09;2.00;;;2.00;;
4186;SDS011;2107;52.306;10.484;2024-03-08T13:33:36;1.70;;;1.70;;
4186;SDS011;2107;52.306;10.484;2024-03-08T13:36:04;2.10;;;2.10;;
4186;SDS011;2107;52.306;10.484;2024-03-08T13:38:41;1.90;;;1.90;;
4186;SDS011;2107;52.306;10.484;2024-03-08T13:41:09;1.90;;;1.90;;
4186;SDS011;2107;52.306;10.484;2024-03-08T13:43:36;2.00;;;2.00;;
4186;SDS011;2107;52.306;10.484;2024-03-08T13:46:05;1.70;;;1.70;;
4186;SDS011;2107;52.306;10.484;2024-03-08T13:48:32;2.00;;;2.00;;
4186;SDS011;2107;52.306;10.484;2024-03-08T13:50:59;1.70;;;1.70;;
4186;SDS011;2107;52.306;10.484;2024-03-08T13:53:26;1.50;;;1.50;;
4186;SDS011;2107;52.306;10.484;2024-03-08T13:55:54;1.60;;;1.60;;
4186;SDS011;2107;52.306;10.484;2024-03-08T13:58:21;1.70;;;1.70;;
4186;SDS011;2107;52.306;10.484;2024-03-08T14:00:49;1.60;;;1.60;;
4186;SDS011;2107;52.306;10.484;2024-03-08T14:03:16;1.57;;;1.57;;
4186;SDS011;2107;52.306;10.484;2024-03-08T14:05:43;1.97;;;1.97;;
4186;SDS011;2107;52.306;10.484;2024-03-08T14:08:11;1.93;;;1.93;;
4186;SDS011;2107;52.306;10.484;2024-03-08T14:10:39;2.20;;;2.20;;
4186;SDS011;2107;52.306;10.484;2024-03-08T14:13:08;1.90;;;1.90;;
4186;SDS011;2107;52.306;10.484;2024-03-08T14:15:36;2.30;;;2.30;;
4186;SDS011;2107;52.306;10.484;2024-03-08T14:18:07;1.57;;;1.57;;
4186;SDS011;2107;52.306;10.484;2024-03-08T14:20:34;2.10;;;2.10;;
4186;SDS011;2107;52.306;10.484;2024-03-08T14:23:01;1.80;;;1.80;;
4186;SDS011;2107;52.306;10.484;2024-03-08T14:25:31;1.90;;;1.90;;
4186;SDS011;2107;52.306;10.484;2024-03-08T14:27:58;1.90;;;1.90;;
4186;SDS011;2107;52.306;10.484;2024-03-08T14:30:30;1.70;;;1.70;;
4186;SDS011;2107;52.306;10.484;2024-03-08T14:33:03;1.70;;;1.70;;
4186;SDS011;2107;52.306;10.484;2024-03-08T14:35:34;1.80;;;1.80;;
4186;SDS011;2107;52.306;10.484;2024-03-08T14:38:01;1.60;;;1.60;;
4186;SDS011;2107;52.306;10.484;2024-03-08T14:40:29;1.67;;;1.67;;
4186;SDS011;2107;52.306;10.484;2024-03-08T14:42:57;1.40;;;1.40;;
4186;SDS011;2107;52.306;10.484;2024-03-08T14:45:26;1.50;;;1.50;;
4186;SDS011;2107;52.306;10.484;2024-03-08T14:47:55;1.70;;;1.70;;
4186;SDS011;2107;52.306;10.484;2024-03-08T14:50:23;1.60;;;1.60;;
4186;SDS011;2107;52.306;10.484;2024-03-08T14:52:52;1.60;;;1.60;;
4186;SDS011;2107;52.306;10.484;2024-03-08T14:55:22;1.70;;;1.70;;
4186;SDS011;2107;52.306;10.484;2024-03-08T15:01:14;1.40;;;1.40;;
4186;SDS011;2107;52.306;10.484;2024-03-08T15:03:43;1.20;;;1.20;;
4186;SDS011;2107;52.306;10.484;2024-03-08T15:06:10;1.33;;;1.33;;
4186;SDS011;2107;52.306;10.484;2024-03-08T15:08:38;1.40;;;1.40;;
4186;SDS011;2107;52.306;10.484;2024-03-08T15:11:05;1.60;;;1.60;;